Rechercher aéroport 
image banner adimage banner adimage banner ad
image banner ad

CL48 - Palomar Health Downtown Campus

Situé à Escondido, United States

ICAO - CL48, IATA -

Données fournies par Airmate  

Information générale

Coordonnées: N33°7'28" W117°4'32"
Élévation : 715 feet MSL.
 
Voir autres Aéroports à California

Données opérationnelles

Special qualification required
Heure actuelle UTC:
Heure actuelle locale:
Météo à : KRNM - Ramona ( 18 km )
METAR: KRNM 251453Z 32004KT 6SM BR SCT007 BKN013 18/17 A3002 RMK AO2 SLP152 T01830167 53008
Voir NOTAMs / SUP AIP / TFR affectant cet aéroport [VIEW]
Fréquences de communication: [VIEW]

Pistes:

Coordonnées de l'aéroport

Adresse: Escondido United States

Vue satellite de CL48